Карточка аэропорта UAAA

Внимание!
Информация на этой странице в стадии наполнения.
Если вы не увидели какой-то информации, или заметили неточность - пожалуйста сообщите нам!
Спасибо!
Команда RU-STAFF
Название аэропортаАлматы
Название аэропорта (англ.)Almaty
Превышение2238 ft. (682.1 m.)
Координаты43°21.072', 77°1.5960000000001'
Высота перехода10000ft
Эшелон переходаFL120, QNH<733:FL130
Коды ответчика3501-3517, 3401-3427
Зона ОрВДАлматы РПИ (UAAA)
Данные METARUAAA 272000Z 25002MPS 9999 SCT100 13/03 Q1015 NOSIG
Проноз погоды (TAF)UAAA 271700Z 2718/2818 22003MPS 9999 BKN030CB OVC100 TX20/2809Z TN10/2801Z TEMPO 2718/2720 17003G09MPS TEMPO 2720/2806 27004G12MPS 5000 -SHRA BR TEMPO 2806/2812 32004G12MPS -SHRA BECMG 2812/2813 26003MPS SCT050CB BKN100 TEMPO 2812/2818 21003G08MPS 5000 FU
NOTAMshow/hide NOTAM
AWOS   TABLE

Информация о ВПП

ВПП Длина ВПП (м.) Покрытие Курс ВПП Частота ILS
05L4500Бетон51109.1
23R4500Бетон231111.3
05R4400Асфальтобетон51110.3
23L4400Асфальтобетон231108.1

Диспетчерские позиции

Позывной Наименование органа УВД Частота
UAAA_APPАлматы-Подход124.8
UAAA_TWRАлматы-Вышка119.4
UAAA_GNDАлматы-Руление121.7
UAAA_R_APPАлматы-Круг120.8



Спутниковое изображение